Time;durP1;ratioP1;P1;durP2;ratioP2;P2;SDS_P1;SDS_P2;PMS_P1;PMS_P2;Temp;Humidity;BMP_temperature;BMP_pressure;BME280_temperature;BME280_humidity;BME280_pressure;Samples;Min_cycle;Max_cycle;Signal;HPM_P1;HPM_P2
2023/08/10 00:01:40;;;;;;;;;;;12.90;78.30;;;;;;6103608;23;20477;-89
2023/08/10 00:04:06;;;;;;;;;;;12.90;78.20;;;;;;6101031;23;19921;-89
2023/08/10 00:06:31;;;;;;;;;;;12.80;78.30;;;;;;6098074;23;20011;-89
2023/08/10 00:08:57;;;;;;;;;;;12.80;78.30;;;;;;6083816;23;20101;-90
2023/08/10 00:11:23;;;;;;;;;;;12.80;78.30;;;;;;6103326;23;19988;-89
2023/08/10 00:13:48;;;;;;;;;;;12.80;78.40;;;;;;6101132;23;19955;-89
2023/08/10 00:16:14;;;;;;;;;;;12.70;78.50;;;;;;6076795;23;19999;-89
2023/08/10 00:18:44;;;;;;;;;;;12.70;78.50;;;;;;6094942;23;20331;-90
2023/08/10 00:21:12;;;;;;;;;;;12.70;78.60;;;;;;6103012;23;20354;-89
2023/08/10 00:23:37;;;;;;;;;;;12.70;78.60;;;;;;6099681;23;20249;-89
2023/08/10 00:26:06;;;;;;;;;;;12.60;78.70;;;;;;6078028;23;19959;-89
2023/08/10 00:28:34;;;;;;;;;;;12.60;78.70;;;;;;6069682;23;19921;-89
2023/08/10 00:31:03;;;;;;;;;;;12.60;78.90;;;;;;6103467;23;20335;-89
2023/08/10 00:33:30;;;;;;;;;;;12.50;78.80;;;;;;6083874;23;19925;-89
2023/08/10 00:36:03;;;;;;;;;;;12.50;78.70;;;;;;6103109;23;19921;-89
2023/08/10 00:38:28;;;;;;;;;;;12.50;78.80;;;;;;6095277;23;19955;-89
2023/08/10 00:40:54;;;;;;;;;;;12.60;78.60;;;;;;6103300;23;19924;-90
2023/08/10 00:43:24;;;;;;;;;;;12.50;78.60;;;;;;6100790;23;19999;-89
2023/08/10 00:45:51;;;;;;;;;;;12.60;78.30;;;;;;6103578;23;19967;-90
2023/08/10 00:48:20;;;;;;;;;;;12.60;78.20;;;;;;6092759;23;19982;-89
2023/08/10 00:50:49;;;;;;;;;;;12.60;78.20;;;;;;6102920;23;19995;-90
2023/08/10 00:53:16;;;;;;;;;;;12.60;78.70;;;;;;6100502;23;19931;-89
2023/08/10 00:55:42;;;;;;;;;;;12.60;78.70;;;;;;6102498;23;19924;-90
2023/08/10 00:58:13;;;;;;;;;;;12.70;78.70;;;;;;6077027;23;19920;-89
2023/08/10 01:00:39;;;;;;;;;;;12.70;78.80;;;;;;6103024;23;20553;-89
2023/08/10 01:03:07;;;;;;;;;;;12.70;78.70;;;;;;6101572;23;19925;-89
2023/08/10 01:05:41;;;;;;;;;;;12.70;78.70;;;;;;6102046;23;19920;-89
2023/08/10 01:08:15;;;;;;;;;;;12.70;78.70;;;;;;6082781;23;19928;-89
2023/08/10 01:11:04;;;;;;;;;;;12.70;78.80;;;;;;6102231;23;19921;-89
2023/08/10 01:13:39;;;;;;;;;;;12.70;78.90;;;;;;6061101;23;19928;-89
2023/08/10 01:16:09;;;;;;;;;;;12.70;78.70;;;;;;6103972;23;19927;-90
2023/08/10 01:18:37;;;;;;;;;;;12.70;78.70;;;;;;6095614;23;19932;-89
2023/08/10 01:21:11;;;;;;;;;;;12.70;78.70;;;;;;6102416;23;19920;-89
2023/08/10 01:23:41;;;;;;;;;;;12.70;78.70;;;;;;6085799;23;19924;-89
2023/08/10 01:26:08;;;;;;;;;;;12.70;78.50;;;;;;6103333;23;19979;-89
2023/08/10 01:28:34;;;;;;;;;;;12.80;78.60;;;;;;6096324;23;19983;-90
2023/08/10 01:31:01;;;;;;;;;;;12.70;78.50;;;;;;6101341;23;19921;-90
2023/08/10 01:33:34;;;;;;;;;;;12.80;78.70;;;;;;6100928;23;19920;-89
2023/08/10 01:36:01;;;;;;;;;;;12.80;78.70;;;;;;6102483;23;19975;-89
2023/08/10 01:38:26;;;;;;;;;;;12.80;78.50;;;;;;6095648;23;19975;-89
2023/08/10 01:40:55;;;;;;;;;;;12.80;78.20;;;;;;6101446;23;20331;-89
2023/08/10 01:43:24;;;;;;;;;;;12.80;78.20;;;;;;6099925;23;20351;-89
2023/08/10 01:46:00;;;;;;;;;;;12.80;77.90;;;;;;6102991;23;19921;-89
2023/08/10 01:48:32;;;;;;;;;;;12.80;78.00;;;;;;6094554;23;19920;-89
2023/08/10 01:50:59;;;;;;;;;;;12.80;78.10;;;;;;6104809;23;19921;-89
2023/08/10 01:53:28;;;;;;;;;;;12.80;77.80;;;;;;6103234;23;20256;-89
2023/08/10 01:55:54;;;;;;;;;;;12.80;78.00;;;;;;6105173;23;20572;-90
2023/08/10 01:58:19;;;;;;;;;;;12.80;78.50;;;;;;6058884;23;19987;-89
2023/08/10 02:00:45;;;;;;;;;;;12.80;78.20;;;;;;6082901;23;20327;-89
2023/08/10 02:03:13;;;;;;;;;;;12.80;78.20;;;;;;6089823;23;19921;-89
2023/08/10 02:05:39;;;;;;;;;;;12.80;78.50;;;;;;6104430;23;19999;-89
2023/08/10 02:08:06;;;;;;;;;;;12.80;78.90;;;;;;6096830;23;19955;-90
2023/08/10 02:10:35;;;;;;;;;;;12.70;78.80;;;;;;6105168;23;19924;-89
2023/08/10 02:13:01;;;;;;;;;;;12.70;78.90;;;;;;6078855;23;19928;-89
2023/08/10 02:15:27;;;;;;;;;;;12.60;78.50;;;;;;6104316;23;19921;-89
2023/08/10 02:17:55;;;;;;;;;;;12.60;78.80;;;;;;6096406;23;19921;-89
2023/08/10 02:20:21;;;;;;;;;;;12.60;79.00;;;;;;6080179;23;19990;-89
2023/08/10 02:22:51;;;;;;;;;;;12.50;78.90;;;;;;6087560;23;20460;-89
2023/08/10 02:25:17;;;;;;;;;;;12.50;79.00;;;;;;6104164;23;19941;-89
2023/08/10 02:27:49;;;;;;;;;;;12.50;78.90;;;;;;6081347;23;20382;-89
2023/08/10 02:30:15;;;;;;;;;;;12.50;79.00;;;;;;6104542;23;20007;-89
2023/08/10 02:32:41;;;;;;;;;;;12.50;79.20;;;;;;6079465;23;19964;-90
2023/08/10 02:35:09;;;;;;;;;;;12.50;79.10;;;;;;6103418;23;19921;-90
2023/08/10 02:37:37;;;;;;;;;;;12.50;79.20;;;;;;6098224;23;19924;-89
2023/08/10 02:40:12;;;;;;;;;;;12.50;79.30;;;;;;6104396;23;19924;-89
2023/08/10 02:42:38;;;;;;;;;;;12.50;79.40;;;;;;6102413;23;19920;-89
2023/08/10 02:45:05;;;;;;;;;;;12.50;79.60;;;;;;6103462;23;20708;-89
2023/08/10 02:47:31;;;;;;;;;;;12.50;79.50;;;;;;6075703;23;19921;-89
2023/08/10 02:49:56;;;;;;;;;;;12.50;79.40;;;;;;6103440;23;19927;-90
2023/08/10 02:52:25;;;;;;;;;;;12.50;79.30;;;;;;6088349;23;19931;-90
2023/08/10 02:54:56;;;;;;;;;;;12.50;79.30;;;;;;6103948;23;19928;-90
2023/08/10 02:57:22;;;;;;;;;;;12.50;79.20;;;;;;6095092;23;20320;-89
2023/08/10 02:59:47;;;;;;;;;;;12.50;79.30;;;;;;6079139;23;19927;-89
2023/08/10 03:02:19;;;;;;;;;;;12.50;79.30;;;;;;6077814;23;19987;-89
2023/08/10 03:04:44;;;;;;;;;;;12.50;79.20;;;;;;6102848;23;20261;-89
2023/08/10 03:07:10;;;;;;;;;;;12.50;79.10;;;;;;6094046;23;19931;-89
2023/08/10 03:09:37;;;;;;;;;;;12.50;79.10;;;;;;6103341;23;19920;-89
2023/08/10 03:12:03;;;;;;;;;;;12.50;79.20;;;;;;6102107;23;19928;-89
2023/08/10 03:14:29;;;;;;;;;;;12.40;79.30;;;;;;6104762;23;19920;-89
2023/08/10 03:16:55;;;;;;;;;;;12.40;79.20;;;;;;6098057;23;20010;-89
2023/08/10 03:19:20;;;;;;;;;;;12.40;79.20;;;;;;6101716;23;19920;-89
2023/08/10 03:21:49;;;;;;;;;;;12.40;79.20;;;;;;6080999;23;19920;-89
2023/08/10 03:24:17;;;;;;;;;;;12.40;79.20;;;;;;6102505;23;19935;-89
2023/08/10 03:26:43;;;;;;;;;;;12.40;79.20;;;;;;6098821;23;19923;-90
2023/08/10 03:29:12;;;;;;;;;;;12.40;79.20;;;;;;6083982;23;19987;-89
2023/08/10 03:31:38;;;;;;;;;;;12.40;79.30;;;;;;6103754;23;19927;-89
2023/08/10 03:34:06;;;;;;;;;;;12.40;79.20;;;;;;6078948;23;19920;-89
2023/08/10 03:36:35;;;;;;;;;;;12.40;79.20;;;;;;6098619;23;19924;-90
2023/08/10 03:39:04;;;;;;;;;;;12.40;79.20;;;;;;6101142;23;20355;-90
2023/08/10 03:41:31;;;;;;;;;;;12.40;79.30;;;;;;6103825;23;19928;-89
2023/08/10 03:43:59;;;;;;;;;;;12.50;79.20;;;;;;6089724;23;20323;-89
2023/08/10 03:46:27;;;;;;;;;;;12.40;79.20;;;;;;6124510;23;20572;-89
2023/08/10 03:48:56;;;;;;;;;;;12.50;79.40;;;;;;6099062;23;19921;-89
2023/08/10 03:51:22;;;;;;;;;;;12.50;79.30;;;;;;6102701;23;19974;-88
2023/08/10 03:53:50;;;;;;;;;;;12.50;79.40;;;;;;6086538;23;19921;-90
2023/08/10 03:56:19;;;;;;;;;;;12.50;79.40;;;;;;6102540;23;19927;-90
2023/08/10 03:58:50;;;;;;;;;;;12.50;79.30;;;;;;6073250;23;19954;-89
2023/08/10 04:01:16;;;;;;;;;;;12.50;79.30;;;;;;6078922;23;20339;-89
2023/08/10 04:03:41;;;;;;;;;;;12.50;79.20;;;;;;6101103;23;19999;-89
2023/08/10 04:06:11;;;;;;;;;;;12.50;79.60;;;;;;6103370;23;19956;-89
2023/08/10 04:08:39;;;;;;;;;;;12.50;79.50;;;;;;6095008;23;19931;-89
2023/08/10 04:11:07;;;;;;;;;;;12.50;79.60;;;;;;6103329;23;19925;-90
2023/08/10 04:13:33;;;;;;;;;;;12.50;79.70;;;;;;6076844;23;19921;-89
2023/08/10 04:16:03;;;;;;;;;;;12.50;79.70;;;;;;6103513;23;20094;-89
2023/08/10 04:18:29;;;;;;;;;;;12.50;79.60;;;;;;6078533;23;19920;-89
2023/08/10 04:21:04;;;;;;;;;;;12.50;79.80;;;;;;6102627;23;19925;-88
2023/08/10 04:23:30;;;;;;;;;;;12.50;79.70;;;;;;6100902;23;19925;-89
2023/08/10 04:25:58;;;;;;;;;;;12.50;79.60;;;;;;6102971;23;19931;-89
2023/08/10 04:28:24;;;;;;;;;;;12.50;79.90;;;;;;6094084;23;19928;-89
2023/08/10 04:30:55;;;;;;;;;;;12.50;80.00;;;;;;6103632;23;20320;-89
2023/08/10 04:33:31;;;;;;;;;;;12.50;79.80;;;;;;6088852;23;19927;-89
2023/08/10 04:35:57;;;;;;;;;;;12.50;80.10;;;;;;6076073;23;19921;-89
2023/08/10 04:38:23;;;;;;;;;;;12.50;79.80;;;;;;6072025;23;20148;-89
2023/08/10 04:40:57;;;;;;;;;;;12.50;79.90;;;;;;6103842;23;19925;-90
2023/08/10 04:43:23;;;;;;;;;;;12.50;79.80;;;;;;6101229;23;19925;-89
2023/08/10 04:45:49;;;;;;;;;;;12.50;79.80;;;;;;6079492;23;19927;-90
2023/08/10 04:48:15;;;;;;;;;;;12.50;79.90;;;;;;6095303;23;19931;-90
2023/08/10 04:50:40;;;;;;;;;;;12.50;80.10;;;;;;6104131;23;19921;-89
2023/08/10 04:53:11;;;;;;;;;;;12.50;80.20;;;;;;6085481;23;20004;-89
2023/08/10 04:55:37;;;;;;;;;;;12.50;80.20;;;;;;6075628;23;20043;-89
2023/08/10 04:58:05;;;;;;;;;;;12.50;80.30;;;;;;6080369;23;19956;-90
2023/08/10 05:00:34;;;;;;;;;;;12.50;80.30;;;;;;6099003;23;19925;-89
2023/08/10 05:03:04;;;;;;;;;;;12.50;80.30;;;;;;6097108;23;19971;-90
2023/08/10 05:05:29;;;;;;;;;;;12.50;80.30;;;;;;6101840;23;20315;-89
2023/08/10 05:07:56;;;;;;;;;;;12.50;80.10;;;;;;6094570;23;19921;-89
2023/08/10 05:10:38;;;;;;;;;;;12.50;80.20;;;;;;6078919;23;19995;-89
2023/08/10 05:13:04;;;;;;;;;;;12.50;80.30;;;;;;6088140;23;19920;-89
2023/08/10 05:15:30;;;;;;;;;;;12.50;80.30;;;;;;6102693;23;19950;-89
2023/08/10 05:17:58;;;;;;;;;;;12.50;80.50;;;;;;6075064;23;20050;-89
2023/08/10 05:20:24;;;;;;;;;;;12.60;80.30;;;;;;6103605;23;20327;-89
2023/08/10 05:22:52;;;;;;;;;;;12.70;80.40;;;;;;6099862;23;20304;-90
2023/08/10 05:25:18;;;;;;;;;;;12.70;80.30;;;;;;6102975;23;20002;-89
2023/08/10 05:27:43;;;;;;;;;;;12.70;80.30;;;;;;6096801;23;19924;-89
2023/08/10 05:30:11;;;;;;;;;;;12.80;80.30;;;;;;6103025;23;19924;-88
2023/08/10 05:32:39;;;;;;;;;;;12.80;80.30;;;;;;6078107;23;19920;-90
2023/08/10 05:35:08;;;;;;;;;;;12.80;80.00;;;;;;6103976;23;19936;-90
2023/08/10 05:37:38;;;;;;;;;;;12.90;79.90;;;;;;6099996;23;19991;-92
2023/08/10 05:40:09;;;;;;;;;;;12.90;79.90;;;;;;6081634;23;20291;-92
2023/08/10 05:42:35;;;;;;;;;;;12.90;80.00;;;;;;6087222;23;19927;-92
2023/08/10 05:45:01;;;;;;;;;;;13.00;79.80;;;;;;6081026;23;20232;-92
2023/08/10 05:47:27;;;;;;;;;;;13.00;79.80;;;;;;6096246;23;19920;-91
2023/08/10 05:49:55;;;;;;;;;;;13.00;79.60;;;;;;6104773;23;19983;-91
2023/08/10 05:52:21;;;;;;;;;;;13.00;79.60;;;;;;6089237;23;19991;-92
2023/08/10 05:54:47;;;;;;;;;;;13.10;79.70;;;;;;6105641;23;19971;-92
2023/08/10 05:57:15;;;;;;;;;;;13.10;79.60;;;;;;6098270;23;20324;-92
2023/08/10 05:59:44;;;;;;;;;;;13.10;79.80;;;;;;6104511;23;19921;-91
2023/08/10 06:02:12;;;;;;;;;;;13.30;79.60;;;;;;6064173;23;19952;-91
2023/08/10 06:04:41;;;;;;;;;;;13.30;79.70;;;;;;6080664;23;19979;-92
2023/08/10 06:07:07;;;;;;;;;;;13.30;79.80;;;;;;6098021;23;19916;-91
2023/08/10 06:09:51;;;;;;;;;;;13.40;79.70;;;;;;6106367;23;20355;-96
2023/08/10 06:12:18;;;;;;;;;;;13.50;79.80;;;;;;6104283;23;19974;-90
2023/08/10 06:14:44;;;;;;;;;;;13.50;79.60;;;;;;6108032;23;20340;-91
2023/08/10 06:17:15;;;;;;;;;;;13.60;79.30;;;;;;6063621;23;19921;-91
2023/08/10 06:19:58;;;;;;;;;;;13.70;79.20;;;;;;6045225;23;20351;-90
2023/08/10 06:22:27;;;;;;;;;;;13.90;79.10;;;;;;6090897;23;19937;-91
2023/08/10 06:24:52;;;;;;;;;;;14.00;79.00;;;;;;6105933;23;19928;-91
2023/08/10 06:27:21;;;;;;;;;;;14.10;78.50;;;;;;6099892;23;19921;-92
2023/08/10 06:29:52;;;;;;;;;;;14.20;78.90;;;;;;6082107;23;19969;-91
2023/08/10 06:32:18;;;;;;;;;;;14.30;78.20;;;;;;6104054;23;19928;-90
2023/08/10 06:34:44;;;;;;;;;;;14.40;77.90;;;;;;6105455;23;19921;-90
2023/08/10 06:37:15;;;;;;;;;;;14.60;77.20;;;;;;6125105;23;19931;-90
2023/08/10 06:39:41;;;;;;;;;;;14.60;77.10;;;;;;6105959;23;19921;-91
2023/08/10 06:42:07;;;;;;;;;;;14.70;76.80;;;;;;6066337;23;20343;-90
2023/08/10 06:44:35;;;;;;;;;;;14.80;76.90;;;;;;6128287;23;19925;-90
2023/08/10 06:47:09;;;;;;;;;;;14.90;76.20;;;;;;6102122;23;19949;-92
2023/08/10 06:49:36;;;;;;;;;;;14.90;76.30;;;;;;6103145;23;19931;-90
2023/08/10 06:52:11;;;;;;;;;;;15.00;76.10;;;;;;6082249;23;19920;-90
2023/08/10 06:54:36;;;;;;;;;;;15.10;76.60;;;;;;6102664;23;19921;-90
2023/08/10 06:57:06;;;;;;;;;;;15.20;75.50;;;;;;6098799;23;20569;-90
2023/08/10 06:59:33;;;;;;;;;;;15.30;75.30;;;;;;6074206;23;20390;-90
2023/08/10 07:02:01;;;;;;;;;;;15.30;74.90;;;;;;6091502;23;19925;-90
2023/08/10 07:04:30;;;;;;;;;;;15.40;75.50;;;;;;6090957;23;19924;-90
2023/08/10 07:06:58;;;;;;;;;;;15.40;75.50;;;;;;6087605;23;19920;-90
2023/08/10 07:09:26;;;;;;;;;;;15.50;75.60;;;;;;6064235;23;19925;-90
2023/08/10 07:36:05;;;;;;;;;;;;;;;;;;;;;
2023/08/10 08:19:57;;;;;;;;;;;16.40;70.50;;;;;;6266698;22;19958;-93
2023/08/10 08:33:24;;;;;;;;;;;;;;;;;;;;;
2023/08/10 08:48:55;;;;;;;;;;;;;;;;;;;;;
2023/08/10 09:04:31;;;;;;;;;;;16.80;70.90;;;;;;5833461;24;19936;-92
2023/08/10 10:02:39;;;;;;;;;;;17.20;71.20;;;;;;5711937;22;11265354;-90
2023/08/10 10:05:38;;;;;;;;;;;17.20;70.50;;;;;;6122312;23;20687;-90
2023/08/10 10:08:14;;;;;;;;;;;;;;;;;;;;;
2023/08/10 10:11:27;;;;;;;;;;;17.20;71.10;;;;;;6121471;23;19924;-92
2023/08/10 10:13:53;;;;;;;;;;;17.20;69.80;;;;;;6106010;23;19928;-90
2023/08/10 10:16:19;;;;;;;;;;;17.20;70.30;;;;;;6111704;23;19935;-88
2023/08/10 10:18:51;;;;;;;;;;;17.20;70.70;;;;;;6105961;23;20327;-89
2023/08/10 10:21:17;;;;;;;;;;;17.20;71.00;;;;;;6111926;23;19928;-88
2023/08/10 10:23:48;;;;;;;;;;;17.20;70.80;;;;;;6088188;23;19932;-88
2023/08/10 10:26:18;;;;;;;;;;;17.20;70.40;;;;;;6117095;23;19997;-89
2023/08/10 10:29:06;;;;;;;;;;;17.20;69.50;;;;;;6115342;23;19932;-90
2023/08/10 10:31:32;;;;;;;;;;;17.20;70.40;;;;;;6117414;23;19956;-91
2023/08/10 10:34:01;;;;;;;;;;;17.20;69.90;;;;;;6113002;23;19924;-90
2023/08/10 10:36:38;;;;;;;;;;;17.30;69.70;;;;;;6122384;23;19928;-88
2023/08/10 10:39:07;;;;;;;;;;;17.40;70.40;;;;;;6117404;23;19924;-88
2023/08/10 10:41:42;;;;;;;;;;;17.40;70.20;;;;;;6140071;23;19947;-91
2023/08/10 10:44:14;;;;;;;;;;;17.40;70.10;;;;;;6117206;23;19925;-91
2023/08/10 10:46:40;;;;;;;;;;;17.40;70.60;;;;;;6117075;23;19920;-90
2023/08/10 10:49:08;;;;;;;;;;;17.50;70.60;;;;;;6116726;23;19924;-90
2023/08/10 10:51:42;;;;;;;;;;;17.60;70.20;;;;;;6119612;23;19931;-91
2023/08/10 10:54:13;;;;;;;;;;;17.60;70.10;;;;;;6114980;23;19930;-91
2023/08/10 10:56:39;;;;;;;;;;;17.60;70.70;;;;;;6117662;23;19924;-91
2023/08/10 10:59:06;;;;;;;;;;;17.80;70.20;;;;;;6117292;23;19925;-91
2023/08/10 11:01:32;;;;;;;;;;;17.80;69.10;;;;;;6092696;23;20011;-89
2023/08/10 11:04:00;;;;;;;;;;;17.70;68.60;;;;;;6110123;23;19995;-89
2023/08/10 11:06:26;;;;;;;;;;;17.70;69.20;;;;;;6087064;23;20371;-90
2023/08/10 11:08:54;;;;;;;;;;;17.70;69.40;;;;;;6070218;23;19932;-90
2023/08/10 11:11:20;;;;;;;;;;;17.80;68.70;;;;;;6113064;23;19931;-90
2023/08/10 11:13:47;;;;;;;;;;;17.80;68.20;;;;;;6110783;23;19920;-91
2023/08/10 11:16:23;;;;;;;;;;;17.90;68.00;;;;;;6087469;23;19967;-91
2023/08/10 11:18:50;;;;;;;;;;;17.90;70.10;;;;;;6109225;23;20354;-90
2023/08/10 11:21:20;;;;;;;;;;;18.00;70.20;;;;;;6112433;23;19921;-91
2023/08/10 11:23:50;;;;;;;;;;;18.00;69.10;;;;;;6112479;23;20007;-90
2023/08/10 11:26:19;;;;;;;;;;;18.00;68.50;;;;;;6084165;23;20630;-90
2023/08/10 11:28:45;;;;;;;;;;;18.00;70.30;;;;;;6108080;23;19925;-89
2023/08/10 11:31:11;;;;;;;;;;;18.00;68.70;;;;;;6078519;23;19920;-90
2023/08/10 11:33:37;;;;;;;;;;;18.00;68.70;;;;;;6110754;23;19921;-91
2023/08/10 11:36:05;;;;;;;;;;;18.00;68.70;;;;;;6111455;23;19960;-90
2023/08/10 11:38:41;;;;;;;;;;;18.00;69.70;;;;;;6107816;23;19948;-90
2023/08/10 11:41:07;;;;;;;;;;;18.00;69.50;;;;;;6112402;23;19924;-89
2023/08/10 11:43:32;;;;;;;;;;;18.00;69.50;;;;;;6109980;23;19921;-90
2023/08/10 11:45:58;;;;;;;;;;;18.00;69.70;;;;;;6108183;23;19927;-90
2023/08/10 11:48:26;;;;;;;;;;;18.00;70.10;;;;;;6101694;23;19927;-90
2023/08/10 11:50:59;;;;;;;;;;;18.00;69.60;;;;;;6109710;23;19931;-90
2023/08/10 11:53:33;;;;;;;;;;;18.10;69.80;;;;;;6111605;23;19954;-90
2023/08/10 11:55:59;;;;;;;;;;;18.10;68.80;;;;;;6111457;23;20637;-89
2023/08/10 11:58:31;;;;;;;;;;;18.10;70.40;;;;;;6077704;23;20647;-90
2023/08/10 12:01:00;;;;;;;;;;;18.10;70.60;;;;;;6110478;23;20295;-89
2023/08/10 12:03:26;;;;;;;;;;;18.10;71.00;;;;;;6115215;23;19936;-89
2023/08/10 12:05:53;;;;;;;;;;;18.20;71.00;;;;;;6095259;23;19950;-90
2023/08/10 12:08:32;;;;;;;;;;;18.20;70.10;;;;;;6147145;22;19930;-90
2023/08/10 12:11:00;;;;;;;;;;;18.20;69.90;;;;;;6239256;22;19930;-90
2023/08/10 12:13:25;;;;;;;;;;;18.20;70.70;;;;;;6227331;22;19921;-91
2023/08/10 12:16:00;;;;;;;;;;;18.20;70.70;;;;;;6117596;23;20055;-90
2023/08/10 12:18:26;;;;;;;;;;;18.20;71.10;;;;;;6238306;22;19931;-93
2023/08/10 12:20:53;;;;;;;;;;;18.10;70.50;;;;;;6248610;22;19924;-93
2023/08/10 12:23:23;;;;;;;;;;;18.10;70.00;;;;;;6244984;22;20343;-91
2023/08/10 12:25:52;;;;;;;;;;;18.10;70.30;;;;;;6246906;22;19930;-90
2023/08/10 12:28:20;;;;;;;;;;;18.10;70.80;;;;;;6111818;23;20023;-91
2023/08/10 12:30:46;;;;;;;;;;;18.10;71.20;;;;;;6118507;23;19924;-91
2023/08/10 12:33:15;;;;;;;;;;;18.00;71.70;;;;;;6123239;23;20103;-91
2023/08/10 12:39:12;;;;;;;;;;;18.00;71.50;;;;;;6149776;23;19920;-92
2023/08/10 12:41:38;;;;;;;;;;;18.00;72.40;;;;;;6255519;22;19938;-94
2023/08/10 12:44:31;;;;;;;;;;;18.00;71.60;;;;;;6109395;23;19924;-91
2023/08/10 12:47:27;;;;;;;;;;;18.00;72.70;;;;;;6268905;22;19947;-96
2023/08/10 12:49:54;;;;;;;;;;;18.00;71.60;;;;;;6119665;23;19929;-90
2023/08/10 12:52:21;;;;;;;;;;;17.90;72.10;;;;;;6097024;23;20001;-91
2023/08/10 12:55:09;;;;;;;;;;;17.80;71.60;;;;;;6250925;22;19977;-91
2023/08/10 12:57:44;;;;;;;;;;;17.80;72.10;;;;;;6126281;23;19924;-92
2023/08/10 13:00:33;;;;;;;;;;;17.70;73.50;;;;;;6246790;22;19934;-92
2023/08/10 13:06:25;;;;;;;;;;;17.60;73.40;;;;;;6119618;23;19920;-93
2023/08/10 13:09:24;;;;;;;;;;;;;;;;;;;;;
2023/08/10 13:15:11;;;;;;;;;;;17.50;74.00;;;;;;6123243;23;19920;-91
2023/08/10 13:17:52;;;;;;;;;;;17.50;73.40;;;;;;6101257;23;19976;-95
2023/08/10 13:20:39;;;;;;;;;;;17.50;73.60;;;;;;6124305;22;20008;-92
2023/08/10 13:23:08;;;;;;;;;;;17.50;73.30;;;;;;6105561;23;19924;-92
2023/08/10 13:25:39;;;;;;;;;;;17.50;73.90;;;;;;6094829;23;19920;-91
2023/08/10 13:28:05;;;;;;;;;;;17.50;73.70;;;;;;6111053;23;19944;-91
2023/08/10 13:30:31;;;;;;;;;;;17.50;73.60;;;;;;6122819;23;19924;-90
2023/08/10 13:32:56;;;;;;;;;;;17.50;73.90;;;;;;6103037;22;19925;-90
2023/08/10 13:35:25;;;;;;;;;;;17.50;73.70;;;;;;6119811;23;19924;-91
2023/08/10 13:37:54;;;;;;;;;;;17.50;74.10;;;;;;6114736;23;20415;-91
2023/08/10 13:40:20;;;;;;;;;;;17.50;74.40;;;;;;6118904;23;20401;-91
2023/08/10 13:42:46;;;;;;;;;;;17.60;73.90;;;;;;6110694;22;19920;-92
2023/08/10 13:45:12;;;;;;;;;;;17.50;73.70;;;;;;6095730;23;19920;-90
2023/08/10 13:47:42;;;;;;;;;;;17.50;73.50;;;;;;6115923;23;20806;-90
2023/08/10 13:50:11;;;;;;;;;;;17.50;73.80;;;;;;6118666;23;20206;-90
2023/08/10 13:52:38;;;;;;;;;;;17.50;74.20;;;;;;6095654;22;20145;-90
2023/08/10 13:55:04;;;;;;;;;;;17.60;74.10;;;;;;6114863;23;19971;-90
2023/08/10 13:57:30;;;;;;;;;;;17.60;74.10;;;;;;6124944;23;19927;-89
2023/08/10 13:59:56;;;;;;;;;;;17.60;74.00;;;;;;6122929;23;19921;-90
2023/08/10 14:02:28;;;;;;;;;;;17.70;73.30;;;;;;6116645;23;19924;-89
2023/08/10 14:05:05;;;;;;;;;;;17.80;74.00;;;;;;6094919;23;20365;-89
2023/08/10 14:07:30;;;;;;;;;;;17.80;74.30;;;;;;6106120;23;19925;-88
2023/08/10 14:09:56;;;;;;;;;;;17.80;74.50;;;;;;6093553;23;19924;-89
2023/08/10 14:12:22;;;;;;;;;;;17.80;73.90;;;;;;6112377;22;25181;-89
2023/08/10 14:14:50;;;;;;;;;;;17.80;73.40;;;;;;6093161;23;19928;-89
2023/08/10 14:17:21;;;;;;;;;;;17.80;73.60;;;;;;6085611;23;19925;-89
2023/08/10 14:19:47;;;;;;;;;;;17.80;73.50;;;;;;6113078;23;20035;-88
2023/08/10 14:22:21;;;;;;;;;;;17.80;73.70;;;;;;6114531;23;19945;-90
2023/08/10 14:24:49;;;;;;;;;;;17.90;73.90;;;;;;6118038;23;20255;-89
2023/08/10 14:27:18;;;;;;;;;;;17.90;74.40;;;;;;6095672;23;19932;-89
2023/08/10 14:30:04;;;;;;;;;;;17.90;74.20;;;;;;6069429;23;19932;-89
2023/08/10 14:32:35;;;;;;;;;;;17.90;74.00;;;;;;6103784;23;20050;-89
2023/08/10 14:35:01;;;;;;;;;;;18.00;74.10;;;;;;6091571;23;20339;-90
2023/08/10 14:37:37;;;;;;;;;;;18.00;74.80;;;;;;6112586;23;19928;-89
2023/08/10 14:40:03;;;;;;;;;;;18.10;74.60;;;;;;6089887;23;19924;-89
2023/08/10 14:42:28;;;;;;;;;;;18.20;74.50;;;;;;6113527;23;19921;-90
2023/08/10 14:45:15;;;;;;;;;;;18.20;73.70;;;;;;6117908;23;19924;-90
2023/08/10 14:47:57;;;;;;;;;;;18.30;74.40;;;;;;6135443;23;19931;-89
2023/08/10 14:50:26;;;;;;;;;;;18.30;73.90;;;;;;6116606;23;19959;-90
2023/08/10 14:53:29;;;;;;;;;;;18.30;73.90;;;;;;6102092;23;19916;-94
2023/08/10 14:56:07;;;;;;;;;;;18.40;73.70;;;;;;6055047;23;19925;-95
2023/08/10 14:58:32;;;;;;;;;;;18.40;74.30;;;;;;6014850;23;20365;-90
2023/08/10 15:01:02;;;;;;;;;;;18.40;73.80;;;;;;6030482;23;20569;-89
2023/08/10 15:03:30;;;;;;;;;;;18.40;73.60;;;;;;6058900;23;19977;-90
2023/08/10 15:06:22;;;;;;;;;;;18.40;73.90;;;;;;6117953;23;19936;-90
2023/08/10 15:08:51;;;;;;;;;;;18.40;74.10;;;;;;6111610;23;19992;-90
2023/08/10 15:11:26;;;;;;;;;;;18.40;74.00;;;;;;6093473;23;19925;-89
2023/08/10 15:13:52;;;;;;;;;;;18.40;74.30;;;;;;6112700;23;19920;-89
2023/08/10 15:16:18;;;;;;;;;;;18.40;74.40;;;;;;6092272;23;19936;-91
2023/08/10 15:19:00;;;;;;;;;;;18.30;74.40;;;;;;6113578;23;19925;-89
2023/08/10 15:21:29;;;;;;;;;;;18.30;74.50;;;;;;6118093;23;19928;-90
2023/08/10 15:24:06;;;;;;;;;;;18.30;74.60;;;;;;6096945;23;19925;-90
2023/08/10 15:26:31;;;;;;;;;;;18.30;74.50;;;;;;6116393;23;19966;-89
2023/08/10 15:29:01;;;;;;;;;;;18.30;74.30;;;;;;6106987;23;19946;-89
2023/08/10 15:31:26;;;;;;;;;;;18.30;74.10;;;;;;6119434;23;20007;-89
2023/08/10 15:33:52;;;;;;;;;;;18.30;74.50;;;;;;6119310;23;19921;-90
2023/08/10 15:36:24;;;;;;;;;;;18.20;74.50;;;;;;6117135;23;20016;-90
2023/08/10 15:38:50;;;;;;;;;;;18.30;75.00;;;;;;6113532;23;19931;-90
2023/08/10 15:41:16;;;;;;;;;;;18.30;74.50;;;;;;6118842;23;19920;-91
2023/08/10 15:43:41;;;;;;;;;;;18.20;74.70;;;;;;6136275;23;19978;-90
2023/08/10 15:46:39;;;;;;;;;;;18.20;74.60;;;;;;6117739;23;19925;-91
2023/08/10 15:49:05;;;;;;;;;;;18.20;74.60;;;;;;6090151;23;19920;-90
2023/08/10 15:51:53;;;;;;;;;;;18.20;74.90;;;;;;6120606;23;19974;-91
2023/08/10 15:57:54;;;;;;;;;;;18.20;75.30;;;;;;6090378;23;19921;-91
2023/08/10 16:00:22;;;;;;;;;;;18.20;75.50;;;;;;6105387;23;19936;-90
2023/08/10 16:02:49;;;;;;;;;;;18.20;75.80;;;;;;6130023;23;19925;-91
2023/08/10 16:05:17;;;;;;;;;;;18.20;75.70;;;;;;6125992;23;20406;-91
2023/08/10 16:07:43;;;;;;;;;;;18.20;75.50;;;;;;6133018;23;20591;-91
2023/08/10 16:10:12;;;;;;;;;;;18.20;75.60;;;;;;6119890;23;19929;-90
2023/08/10 16:13:02;;;;;;;;;;;18.20;75.50;;;;;;6117112;23;19928;-91
2023/08/10 16:15:30;;;;;;;;;;;18.20;75.50;;;;;;6142560;23;20378;-90
2023/08/10 16:17:56;;;;;;;;;;;18.20;75.50;;;;;;6113997;23;19977;-91
2023/08/10 16:20:48;;;;;;;;;;;18.20;75.50;;;;;;6090320;23;19924;-95
2023/08/10 16:23:23;;;;;;;;;;;18.20;76.00;;;;;;6075269;23;19975;-94
2023/08/10 16:25:51;;;;;;;;;;;18.20;75.80;;;;;;6017827;23;19921;-92
2023/08/10 16:31:45;;;;;;;;;;;18.20;75.50;;;;;;6060217;23;19922;-93
2023/08/10 16:34:48;;;;;;;;;;;18.20;76.00;;;;;;6190236;22;19924;-94
2023/08/10 16:37:56;;;;;;;;;;;;;;;;;;;;;
2023/08/10 16:47:38;;;;;;;;;;;;;;;;;;;;;
2023/08/10 16:50:38;;;;;;;;;;;;;;;;;;;;;
2023/08/10 16:57:38;;;;;;;;;;;18.20;75.50;;;;;;6082960;23;20447;-93
2023/08/10 17:10:28;;;;;;;;;;;;;;;;;;;;;
2023/08/10 17:13:43;;;;;;;;;;;;;;;;;;;;;
2023/08/10 17:19:32;;;;;;;;;;;18.00;76.00;;;;;;5994182;23;19926;-92
2023/08/10 17:28:49;;;;;;;;;;;18.00;75.70;;;;;;5979962;23;19926;-91
2023/08/10 17:31:15;;;;;;;;;;;18.00;75.90;;;;;;6064347;23;19929;-92
2023/08/10 17:33:41;;;;;;;;;;;18.00;76.00;;;;;;6062854;23;19928;-92
2023/08/10 17:36:09;;;;;;;;;;;18.00;76.20;;;;;;6041063;23;19986;-92
2023/08/10 17:38:35;;;;;;;;;;;18.00;76.20;;;;;;6058475;23;20419;-92
2023/08/10 17:41:04;;;;;;;;;;;18.00;76.20;;;;;;6040687;23;20425;-93
2023/08/10 17:43:31;;;;;;;;;;;18.00;76.60;;;;;;6062466;23;20240;-93
2023/08/10 17:45:57;;;;;;;;;;;18.00;76.50;;;;;;6041982;23;20000;-92
2023/08/10 17:48:23;;;;;;;;;;;18.00;76.70;;;;;;6105601;23;19963;-93
2023/08/10 17:51:06;;;;;;;;;;;18.00;76.70;;;;;;6121874;23;20326;-93
2023/08/10 17:53:37;;;;;;;;;;;18.00;76.60;;;;;;6082394;23;19924;-92
2023/08/10 17:56:09;;;;;;;;;;;17.90;76.30;;;;;;6120099;23;20086;-92
2023/08/10 17:58:35;;;;;;;;;;;17.90;76.50;;;;;;6088166;23;19924;-92
2023/08/10 18:01:04;;;;;;;;;;;17.80;76.60;;;;;;6119638;23;19951;-92
2023/08/10 18:03:30;;;;;;;;;;;17.80;76.50;;;;;;6093256;23;20445;-91
2023/08/10 18:06:01;;;;;;;;;;;17.80;76.80;;;;;;6119583;23;19920;-92
2023/08/10 18:08:27;;;;;;;;;;;17.80;76.80;;;;;;6086909;23;20420;-92
2023/08/10 18:10:53;;;;;;;;;;;17.80;76.80;;;;;;6119568;23;19924;-92